Time;durP1;ratioP1;P1;durP2;ratioP2;P2;SDS_P1;SDS_P2;PMS_P1;PMS_P2;Temp;Humidity;BMP_temperature;BMP_pressure;BME280_temperature;BME280_humidity;BME280_pressure;Samples;Min_cycle;Max_cycle;Signal;HPM_P1;HPM_P2
2022/09/02 00:00:16;;;;;;;0.00;0.00;;;;;;;12.40;77.00;100876.41;5072845;28;20384;-72
2022/09/02 00:02:42;;;;;;;0.00;0.00;;;;;;;12.47;76.65;100874.03;5072748;28;20204;-72
2022/09/02 00:05:07;;;;;;;0.00;0.00;;;;;;;12.63;76.87;100869.78;5072437;28;20210;-72
2022/09/02 00:07:33;;;;;;;0.00;0.00;;;;;;;12.56;76.57;100872.13;5072641;28;20179;-72
2022/09/02 00:09:59;;;;;;;0.00;0.00;;;;;;;12.64;76.15;100873.31;5072677;28;20178;-72
2022/09/02 00:12:25;;;;;;;0.00;0.00;;;;;;;12.74;76.34;100871.13;5072881;28;20264;-71
2022/09/02 00:14:50;;;;;;;0.00;0.00;;;;;;;12.67;75.34;100876.22;5071251;28;20181;-73
2022/09/02 00:17:15;;;;;;;0.00;0.00;;;;;;;12.46;76.25;100862.25;5072474;28;20205;-72
2022/09/02 00:19:41;;;;;;;0.00;0.00;;;;;;;12.44;76.75;100867.25;5072397;28;20220;-73
2022/09/02 00:22:06;;;;;;;0.00;0.00;;;;;;;12.54;76.91;100871.63;5072373;28;20571;-72
2022/09/02 00:24:32;;;;;;;0.00;0.00;;;;;;;12.59;76.32;100867.97;5072052;28;20217;-73
2022/09/02 00:26:57;;;;;;;0.00;0.00;;;;;;;12.60;76.33;100872.34;5070858;28;20637;-72
2022/09/02 00:29:25;;;;;;;0.00;0.00;;;;;;;12.54;76.63;100865.34;5072319;28;20506;-72
2022/09/02 00:31:50;;;;;;;0.00;0.00;;;;;;;12.64;76.12;100862.34;5072227;28;20171;-72
2022/09/02 00:34:17;;;;;;;0.00;0.00;;;;;;;12.70;76.29;100866.56;5071854;28;20190;-72
2022/09/02 00:36:43;;;;;;;0.00;0.00;;;;;;;12.71;76.27;100868.97;5072112;28;20174;-71
2022/09/02 00:39:09;;;;;;;0.00;0.00;;;;;;;12.66;76.19;100860.09;5072063;28;20210;-72
2022/09/02 00:41:37;;;;;;;0.00;0.00;;;;;;;12.65;75.93;100859.28;5072022;28;20250;-73
2022/09/02 00:44:08;;;;;;;0.00;0.00;;;;;;;12.68;75.73;100860.59;5071761;28;20210;-71
2022/09/02 00:46:34;;;;;;;0.00;0.00;;;;;;;12.70;75.89;100853.66;5071924;28;20225;-72
2022/09/02 00:49:14;;;;;;;0.00;0.00;;;;;;;12.63;75.98;100866.22;5071775;28;20633;-73
2022/09/02 00:51:57;;;;;;;0.03;0.03;;;;;;;12.57;76.84;100860.03;5072278;28;20183;-72
2022/09/02 00:54:25;;;;;;;0.00;0.00;;;;;;;12.49;77.23;100863.56;5071470;28;20170;-72
2022/09/02 00:56:51;;;;;;;0.00;0.00;;;;;;;12.39;77.39;100853.66;5071555;28;20182;-72
2022/09/02 00:59:34;;;;;;;0.00;0.00;;;;;;;12.43;77.22;100865.59;5071606;28;20206;-72
2022/09/02 01:01:59;;;;;;;0.00;0.00;;;;;;;12.54;77.18;100862.63;5071889;28;20784;-72
2022/09/02 01:04:24;;;;;;;0.00;0.00;;;;;;;12.50;77.50;100854.22;5071244;28;20270;-72
2022/09/02 01:06:51;;;;;;;0.00;0.00;;;;;;;12.52;77.46;100854.72;5071471;28;20266;-72
2022/09/02 01:09:16;;;;;;;0.00;0.00;;;;;;;12.43;78.16;100854.66;5070397;28;20578;-72
2022/09/02 01:11:46;;;;;;;0.00;0.00;;;;;;;12.51;77.72;100853.09;5071397;28;20170;-72
2022/09/02 01:14:13;;;;;;;0.00;0.00;;;;;;;12.51;77.67;100853.09;5069808;28;20900;-73
2022/09/02 01:16:45;;;;;;;0.00;0.00;;;;;;;12.36;78.33;100848.81;5069985;28;20179;-72
2022/09/02 01:19:21;;;;;;;0.20;0.20;;;;;;;12.36;78.72;100843.34;5071226;28;20553;-73
2022/09/02 01:21:50;;;;;;;0.00;0.00;;;;;;;12.34;78.17;100848.31;5071235;28;20253;-72
2022/09/02 01:24:17;;;;;;;0.00;0.00;;;;;;;12.39;78.38;100852.84;5069532;28;20220;-73
2022/09/02 01:26:43;;;;;;;0.00;0.00;;;;;;;12.37;78.25;100844.16;5070746;28;20176;-72
2022/09/02 01:29:08;;;;;;;0.00;0.00;;;;;;;12.32;78.58;100847.03;5071211;28;20190;-72
2022/09/02 01:31:33;;;;;;;0.00;0.00;;;;;;;12.30;78.94;100841.06;5071102;28;20590;-74
2022/09/02 01:33:59;;;;;;;0.00;0.00;;;;;;;12.25;79.53;100841.97;5070767;28;20171;-74
2022/09/02 01:36:25;;;;;;;0.00;0.00;;;;;;;12.18;79.38;100833.41;5069575;28;20189;-75
2022/09/02 01:38:50;;;;;;;0.00;0.00;;;;;;;12.15;79.71;100837.56;5070839;28;20201;-74
2022/09/02 01:41:15;;;;;;;0.00;0.00;;;;;;;12.23;79.52;100841.47;5070838;28;20183;-73
2022/09/02 01:43:41;;;;;;;0.00;0.00;;;;;;;12.14;80.44;100841.41;5070581;28;20255;-75
2022/09/02 01:46:07;;;;;;;0.33;0.33;;;;;;;12.21;80.48;100838.25;5070778;28;20209;-74
2022/09/02 01:48:32;;;;;;;0.00;0.00;;;;;;;12.23;80.08;100836.00;5070841;28;20209;-73
2022/09/02 01:51:00;;;;;;;0.00;0.00;;;;;;;12.18;79.80;100834.22;5070854;28;20175;-75
2022/09/02 01:53:27;;;;;;;0.00;0.00;;;;;;;12.13;80.71;100831.56;5070475;28;20178;-74
2022/09/02 01:55:53;;;;;;;0.00;0.00;;;;;;;12.11;80.60;100825.59;5070655;28;20216;-74
2022/09/02 01:58:19;;;;;;;0.00;0.00;;;;;;;12.07;81.23;100812.84;5070600;28;20195;-74
2022/09/02 02:00:45;;;;;;;0.00;0.00;;;;;;;12.02;81.23;100824.75;5070575;28;20261;-74
2022/09/02 02:03:11;;;;;;;0.00;0.00;;;;;;;11.97;81.88;100816.66;5070566;28;20570;-75
2022/09/02 02:05:36;;;;;;;0.00;0.00;;;;;;;11.97;82.47;100816.66;5070104;28;20182;-74
2022/09/02 02:08:02;;;;;;;0.00;0.00;;;;;;;12.03;82.17;100818.16;5070732;28;20179;-74
2022/09/02 02:10:28;;;;;;;0.00;0.00;;;;;;;11.94;82.43;100817.28;5070658;28;20528;-75
2022/09/02 02:12:53;;;;;;;0.00;0.00;;;;;;;11.94;83.22;100811.00;5070591;28;20231;-72
2022/09/02 02:15:20;;;;;;;0.00;0.00;;;;;;;11.95;83.32;100802.47;5070533;28;20167;-73
2022/09/02 02:17:46;;;;;;;0.00;0.00;;;;;;;12.00;82.71;100801.53;5070689;28;20655;-72
2022/09/02 02:20:16;;;;;;;0.00;0.00;;;;;;;11.97;83.37;100807.63;5070491;28;20631;-72
2022/09/02 02:22:42;;;;;;;0.00;0.00;;;;;;;11.98;83.60;100801.84;5070425;28;20179;-72
2022/09/02 02:25:08;;;;;;;0.00;0.00;;;;;;;11.85;83.98;100813.66;5070607;28;20212;-72
2022/09/02 02:27:34;;;;;;;0.00;0.00;;;;;;;11.83;84.54;100810.41;5070787;28;20512;-72
2022/09/02 02:29:59;;;;;;;0.00;0.00;;;;;;;11.77;84.83;100803.44;5070771;28;20254;-72
2022/09/02 02:32:25;;;;;;;0.00;0.00;;;;;;;11.70;84.62;100797.56;5070959;28;20172;-72
2022/09/02 02:34:51;;;;;;;0.00;0.00;;;;;;;11.60;85.68;100799.44;5070131;28;20205;-72
2022/09/02 02:37:17;;;;;;;0.00;0.00;;;;;;;11.49;85.79;100808.19;5070451;28;20249;-72
2022/09/02 02:39:42;;;;;;;0.00;0.00;;;;;;;11.37;86.37;100803.25;5074132;28;20210;-72
2022/09/02 02:42:11;;;;;;;0.00;0.00;;;;;;;11.22;87.17;100804.41;5074421;28;20177;-71
2022/09/02 02:44:38;;;;;;;0.00;0.00;;;;;;;11.04;88.32;100791.66;5074197;28;20174;-72
2022/09/02 02:47:03;;;;;;;0.00;0.00;;;;;;;11.02;88.94;100791.97;5074198;28;20751;-72
2022/09/02 02:49:29;;;;;;;0.00;0.00;;;;;;;10.96;89.52;100800.56;5074141;28;20273;-74
2022/09/02 02:51:54;;;;;;;0.00;0.00;;;;;;;10.87;89.69;100791.50;5074265;28;20179;-74
2022/09/02 02:54:20;;;;;;;0.00;0.00;;;;;;;10.87;90.37;100795.03;5071209;28;20676;-74
2022/09/02 02:56:45;;;;;;;0.00;0.00;;;;;;;10.72;90.93;100785.22;5073543;28;20206;-74
2022/09/02 02:59:11;;;;;;;0.00;0.00;;;;;;;10.64;91.69;100783.19;5074324;28;20206;-74
2022/09/02 03:01:37;;;;;;;0.00;0.00;;;;;;;10.53;92.29;100780.94;5073891;28;20171;-75
2022/09/02 03:04:02;;;;;;;0.00;0.00;;;;;;;10.47;93.30;100784.88;5072450;28;20846;-73
2022/09/02 03:06:28;;;;;;;0.00;0.00;;;;;;;10.45;93.75;100787.94;5073777;28;20597;-74
2022/09/02 03:08:55;;;;;;;0.00;0.00;;;;;;;10.33;94.38;100785.69;5073485;28;20178;-75
2022/09/02 03:11:22;;;;;;;0.00;0.00;;;;;;;10.38;94.50;100787.50;5072563;28;20175;-75
2022/09/02 03:13:51;;;;;;;0.00;0.00;;;;;;;10.30;94.87;100785.47;5073449;28;20324;-75
2022/09/02 03:16:18;;;;;;;0.00;0.00;;;;;;;10.31;95.39;100784.38;5073652;28;20178;-75
2022/09/02 03:18:45;;;;;;;0.00;0.00;;;;;;;10.32;95.21;100784.06;5073552;28;20198;-75
2022/09/02 03:21:11;;;;;;;0.00;0.00;;;;;;;10.34;95.51;100781.03;5073032;28;20637;-75
2022/09/02 03:23:37;;;;;;;0.00;0.00;;;;;;;10.40;95.44;100775.16;5073241;28;20203;-74
2022/09/02 03:26:09;;;;;;;0.00;0.00;;;;;;;10.38;95.23;100771.91;5073391;28;20182;-76
2022/09/02 03:28:34;;;;;;;0.00;0.00;;;;;;;10.52;95.06;100782.88;5073476;28;20174;-75
2022/09/02 03:30:59;;;;;;;0.00;0.00;;;;;;;10.45;95.71;100782.47;5073442;28;20615;-75
2022/09/02 03:33:25;;;;;;;0.00;0.00;;;;;;;10.43;95.69;100771.03;5073676;28;20190;-75
2022/09/02 03:35:50;;;;;;;0.00;0.00;;;;;;;10.49;95.67;100778.00;5073032;28;20178;-74
2022/09/02 03:38:15;;;;;;;0.00;0.00;;;;;;;10.52;95.60;100777.41;5073419;28;20669;-74
2022/09/02 03:40:41;;;;;;;0.00;0.00;;;;;;;10.47;95.83;100784.88;5073274;28;20261;-75
2022/09/02 03:43:06;;;;;;;0.00;0.00;;;;;;;10.46;95.73;100775.88;5073091;28;20183;-75
2022/09/02 03:45:32;;;;;;;0.00;0.00;;;;;;;10.39;95.85;100770.00;5071794;28;20174;-75
2022/09/02 03:47:58;;;;;;;0.00;0.00;;;;;;;10.63;95.84;100778.03;5073216;28;20171;-76
2022/09/02 03:50:28;;;;;;;0.00;0.00;;;;;;;10.66;95.15;100774.66;5072965;28;20202;-75
2022/09/02 03:52:54;;;;;;;0.00;0.00;;;;;;;10.76;94.61;100777.22;5072982;28;20216;-76
2022/09/02 03:55:20;;;;;;;0.00;0.00;;;;;;;10.81;94.14;100779.81;5072527;28;20198;-75
2022/09/02 03:57:45;;;;;;;0.00;0.00;;;;;;;10.95;93.59;100779.81;5072986;28;20185;-74
2022/09/02 04:00:13;;;;;;;0.00;0.00;;;;;;;10.98;92.73;100784.66;5072795;28;20233;-74
2022/09/02 04:02:38;;;;;;;0.00;0.00;;;;;;;10.89;92.93;100772.84;5073043;28;20625;-74
2022/09/02 04:05:04;;;;;;;0.00;0.00;;;;;;;10.99;92.08;100784.38;5072546;28;20179;-75
2022/09/02 04:07:30;;;;;;;0.00;0.00;;;;;;;10.99;92.28;100783.56;5072667;28;20575;-75
2022/09/02 04:09:55;;;;;;;0.00;0.00;;;;;;;10.96;92.25;100784.97;5072711;28;20213;-74
2022/09/02 04:12:21;;;;;;;0.00;0.00;;;;;;;10.84;92.97;100781.94;5072630;28;20231;-75
2022/09/02 04:14:47;;;;;;;0.00;0.00;;;;;;;10.88;93.14;100776.69;5072435;28;20171;-75
2022/09/02 04:17:12;;;;;;;0.00;0.00;;;;;;;10.87;93.38;100783.28;5072478;28;20526;-75
2022/09/02 04:19:39;;;;;;;0.00;0.00;;;;;;;10.58;93.68;100776.22;5072236;28;20263;-75
2022/09/02 04:22:05;;;;;;;0.00;0.00;;;;;;;10.47;94.93;100782.97;5072422;28;20174;-75
2022/09/02 04:24:31;;;;;;;0.00;0.00;;;;;;;10.51;95.32;100785.91;5072222;28;20182;-75
2022/09/02 04:26:56;;;;;;;0.00;0.00;;;;;;;10.56;95.58;100781.16;5072773;28;20174;-75
2022/09/02 04:29:23;;;;;;;0.00;0.00;;;;;;;10.66;94.96;100783.69;5072281;28;20210;-75
2022/09/02 04:31:48;;;;;;;0.00;0.00;;;;;;;10.66;94.52;100791.88;5072325;28;20251;-75
2022/09/02 04:34:13;;;;;;;0.00;0.00;;;;;;;10.46;94.78;100788.75;5072071;28;20228;-74
2022/09/02 04:36:39;;;;;;;0.00;0.00;;;;;;;10.46;95.55;100792.28;5072148;28;20180;-75
2022/09/02 04:39:04;;;;;;;0.00;0.00;;;;;;;10.59;95.52;100786.03;5072038;28;20277;-75
2022/09/02 04:41:30;;;;;;;0.00;0.00;;;;;;;10.61;95.19;100780.25;5072537;28;20173;-76
2022/09/02 04:43:58;;;;;;;0.00;0.00;;;;;;;10.57;94.96;100782.78;5072196;28;20170;-74
2022/09/02 04:46:23;;;;;;;0.00;0.00;;;;;;;10.61;95.09;100792.00;5071984;28;20194;-75
2022/09/02 04:48:50;;;;;;;0.00;0.00;;;;;;;10.58;94.91;100792.59;5070694;28;20166;-76
2022/09/02 04:51:21;;;;;;;0.00;0.00;;;;;;;10.58;95.13;100789.88;5071839;28;20634;-76
2022/09/02 04:53:47;;;;;;;0.00;0.00;;;;;;;10.65;95.30;100801.19;5070197;28;20178;-75
2022/09/02 04:56:16;;;;;;;0.00;0.00;;;;;;;10.55;95.45;100792.38;5071596;28;20197;-75
2022/09/02 04:58:45;;;;;;;0.00;0.00;;;;;;;10.56;95.20;100791.25;5072036;28;20954;-75
2022/09/02 05:01:16;;;;;;;0.00;0.00;;;;;;;10.55;95.83;100782.25;5071154;28;20175;-75
2022/09/02 05:03:43;;;;;;;0.00;0.00;;;;;;;10.51;95.65;100789.44;5071867;28;20428;-74
2022/09/02 05:06:11;;;;;;;0.00;0.00;;;;;;;10.63;95.54;100789.75;5071545;28;20259;-76
2022/09/02 05:08:36;;;;;;;0.00;0.00;;;;;;;10.52;95.36;100795.72;5071492;28;20179;-75
2022/09/02 05:11:05;;;;;;;0.00;0.00;;;;;;;10.45;96.15;100793.41;5071467;28;20312;-75
2022/09/02 05:13:31;;;;;;;0.00;0.00;;;;;;;10.23;97.15;100782.31;5071156;28;20179;-75
2022/09/02 05:15:56;;;;;;;0.00;0.00;;;;;;;10.10;98.31;100787.41;5071331;28;20178;-73
2022/09/02 05:18:22;;;;;;;0.00;0.00;;;;;;;10.19;98.99;100786.75;5071268;28;20225;-74
2022/09/02 05:20:47;;;;;;;0.00;0.00;;;;;;;10.37;99.11;100780.41;5070999;28;20210;-75
2022/09/02 05:23:13;;;;;;;0.00;0.00;;;;;;;10.28;98.69;100780.31;5071066;28;20170;-73
2022/09/02 05:25:38;;;;;;;0.00;0.00;;;;;;;10.37;98.81;100786.69;5070887;28;20179;-74
2022/09/02 05:28:07;;;;;;;0.00;0.00;;;;;;;10.29;98.96;100781.13;5071429;28;20686;-75
2022/09/02 05:30:33;;;;;;;0.00;0.00;;;;;;;10.35;99.12;100782.66;5071218;28;20185;-75
2022/09/02 05:32:59;;;;;;;0.00;0.00;;;;;;;10.29;99.51;100778.41;5071013;28;20170;-75
2022/09/02 05:35:24;;;;;;;0.00;0.00;;;;;;;10.34;99.76;100776.38;5070671;28;20182;-75
2022/09/02 05:37:49;;;;;;;0.00;0.00;;;;;;;10.43;99.56;100781.97;5070899;28;20630;-74
2022/09/02 05:40:15;;;;;;;0.00;0.00;;;;;;;10.52;99.41;100782.88;5071330;28;20293;-74
2022/09/02 05:42:40;;;;;;;0.10;0.10;;;;;;;10.56;99.03;100783.91;5070890;28;20178;-75
2022/09/02 05:45:07;;;;;;;0.00;0.00;;;;;;;10.61;99.17;100781.06;5070671;28;20525;-75
2022/09/02 05:47:34;;;;;;;0.00;0.00;;;;;;;10.67;99.12;100784.50;5070709;28;20178;-74
2022/09/02 05:50:00;;;;;;;0.00;0.00;;;;;;;10.73;98.97;100784.09;5070756;28;20182;-78
2022/09/02 05:52:26;;;;;;;0.00;0.00;;;;;;;10.72;98.79;100785.22;5071063;28;20536;-74
2022/09/02 05:54:53;;;;;;;0.00;0.00;;;;;;;10.86;98.79;100785.22;5070321;28;20189;-75
2022/09/02 05:57:18;;;;;;;0.00;0.00;;;;;;;10.97;98.44;100780.31;5070715;28;20263;-74
2022/09/02 05:59:44;;;;;;;0.00;0.00;;;;;;;11.10;98.38;100770.47;5070750;28;20313;-74
2022/09/02 06:02:12;;;;;;;0.00;0.00;;;;;;;11.20;97.87;100776.53;5070641;28;20228;-74
2022/09/02 06:04:44;;;;;;;0.57;0.57;;;;;;;11.36;96.87;100781.69;5065435;28;20468;-74
2022/09/02 06:07:09;;;;;;;0.00;0.00;;;;;;;11.47;96.23;100780.34;5069451;28;20202;-75
2022/09/02 06:09:35;;;;;;;0.00;0.00;;;;;;;11.49;95.15;100778.09;5067559;28;20175;-74
2022/09/02 06:12:00;;;;;;;0.00;0.00;;;;;;;11.53;94.96;100784.56;5069935;28;20277;-74
2022/09/02 06:14:26;;;;;;;0.00;0.00;;;;;;;11.70;94.45;100794.81;5069667;28;20170;-74
2022/09/02 06:16:53;;;;;;;0.00;0.00;;;;;;;11.80;93.73;100795.44;5070378;28;20187;-74
2022/09/02 06:19:20;;;;;;;0.00;0.00;;;;;;;11.91;92.93;100801.47;5070180;28;20210;-74
2022/09/02 06:21:46;;;;;;;0.00;0.00;;;;;;;11.97;93.17;100799.41;5070101;28;20508;-74
2022/09/02 06:24:11;;;;;;;0.00;0.00;;;;;;;12.05;92.99;100801.41;5070097;28;20614;-74
2022/09/02 06:26:38;;;;;;;0.00;0.00;;;;;;;12.19;93.25;100796.66;5070215;28;20236;-74
2022/09/02 06:29:04;;;;;;;0.00;0.00;;;;;;;12.31;92.67;100802.38;5069097;28;20535;-74
2022/09/02 06:31:31;;;;;;;0.00;0.00;;;;;;;12.48;92.27;100805.19;5070060;28;20178;-74
2022/09/02 06:33:57;;;;;;;0.00;0.00;;;;;;;12.55;91.74;100806.66;5069718;28;20262;-74
2022/09/02 06:36:24;;;;;;;0.00;0.00;;;;;;;12.70;90.54;100800.78;5070270;28;20713;-74
2022/09/02 06:38:51;;;;;;;0.00;0.00;;;;;;;12.76;89.76;100799.53;5070257;28;20541;-74
2022/09/02 06:41:22;;;;;;;0.30;0.30;;;;;;;12.85;88.42;100803.06;5070085;28;20170;-74
2022/09/02 06:43:48;;;;;;;0.00;0.00;;;;;;;12.96;88.33;100801.66;5069857;28;20205;-74
2022/09/02 06:46:20;;;;;;;0.00;0.00;;;;;;;13.18;87.83;100809.03;5070075;28;20262;-74
2022/09/02 06:48:48;;;;;;;0.00;0.00;;;;;;;13.17;86.31;100809.31;5070364;28;20532;-74
2022/09/02 06:51:19;;;;;;;0.00;0.00;;;;;;;13.32;86.05;100806.16;5070044;28;20173;-74
2022/09/02 06:53:44;;;;;;;0.10;0.10;;;;;;;13.42;85.16;100800.31;5069761;28;20205;-74
2022/09/02 06:56:10;;;;;;;0.00;0.00;;;;;;;13.51;85.15;100814.88;5069875;28;20222;-74
2022/09/02 06:58:35;;;;;;;0.00;0.00;;;;;;;13.72;84.77;100808.72;5070046;28;20206;-74
2022/09/02 07:01:01;;;;;;;3.20;1.30;;;;;;;13.85;84.13;100810.50;5069853;28;20175;-74
2022/09/02 07:06:11;;;;;;;0.00;0.00;;;;;;;13.96;82.10;100806.31;5070282;28;20209;-75
2022/09/02 07:08:38;;;;;;;0.00;0.00;;;;;;;14.07;82.06;100809.53;5069931;28;20175;-75
2022/09/02 07:11:06;;;;;;;0.00;0.00;;;;;;;14.18;80.99;100808.88;5069885;28;20210;-75
2022/09/02 07:13:32;;;;;;;0.10;0.10;;;;;;;14.33;80.72;100802.03;5069478;28;20228;-73
2022/09/02 07:15:57;;;;;;;0.37;0.37;;;;;;;14.47;80.02;100807.38;5069727;28;20183;-74
2022/09/02 07:18:23;;;;;;;0.93;0.13;;;;;;;14.38;77.86;100799.09;5068466;28;20193;-74
2022/09/02 07:20:48;;;;;;;0.00;0.00;;;;;;;14.46;79.20;100811.22;5069593;28;20181;-75
2022/09/02 07:23:14;;;;;;;0.00;0.00;;;;;;;14.56;79.56;100816.38;5069626;28;20170;-74
2022/09/02 07:25:40;;;;;;;0.07;0.07;;;;;;;14.68;79.20;100813.75;5072840;28;20398;-73
2022/09/02 07:28:07;;;;;;;0.13;0.13;;;;;;;14.84;78.69;100812.06;5073747;28;20654;-73
2022/09/02 07:30:33;;;;;;;0.00;0.00;;;;;;;14.93;78.29;100822.22;5073348;28;20178;-74
2022/09/02 07:32:58;;;;;;;0.00;0.00;;;;;;;15.02;78.51;100815.50;5073388;28;20167;-76
2022/09/02 07:35:24;;;;;;;0.00;0.00;;;;;;;15.16;77.98;100821.59;5073525;28;20633;-75
2022/09/02 07:37:49;;;;;;;0.00;0.00;;;;;;;15.16;76.29;100812.53;5073193;28;20560;-76
2022/09/02 07:40:15;;;;;;;0.57;0.47;;;;;;;15.24;76.92;100814.44;5073113;28;20243;-76
2022/09/02 07:42:41;;;;;;;0.00;0.00;;;;;;;15.36;77.17;100811.75;5072913;28;20204;-74
2022/09/02 07:45:07;;;;;;;0.00;0.00;;;;;;;15.39;76.49;100816.59;5072756;28;20242;-74
2022/09/02 07:47:33;;;;;;;0.00;0.00;;;;;;;15.44;76.57;100812.84;5073023;28;20661;-74
2022/09/02 07:49:58;;;;;;;0.00;0.00;;;;;;;15.56;75.82;100809.34;5073070;28;20236;-73
2022/09/02 07:52:24;;;;;;;0.30;0.30;;;;;;;15.76;74.73;100808.56;5069321;28;20187;-74
2022/09/02 07:54:49;;;;;;;0.30;0.30;;;;;;;15.84;74.16;100801.38;5072196;28;20182;-73
2022/09/02 07:57:14;;;;;;;0.57;0.57;;;;;;;16.01;73.79;100793.75;5072740;28;20209;-74
2022/09/02 07:59:40;;;;;;;1.27;0.70;;;;;;;16.10;73.73;100807.44;5072167;28;20211;-73
2022/09/02 08:02:05;;;;;;;0.20;0.20;;;;;;;16.22;73.03;100807.50;5065930;28;20232;-75
2022/09/02 08:04:30;;;;;;;0.07;0.00;;;;;;;16.32;71.77;100806.22;5072279;28;20190;-77
2022/09/02 08:06:56;;;;;;;0.00;0.00;;;;;;;16.36;71.57;100807.19;5069046;28;20232;-76
2022/09/02 08:09:21;;;;;;;0.00;0.00;;;;;;;16.49;71.05;100808.81;5072589;28;20226;-76
2022/09/02 08:11:49;;;;;;;0.00;0.00;;;;;;;16.72;70.07;100805.63;5072704;28;20171;-76
2022/09/02 08:14:19;;;;;;;0.00;0.00;;;;;;;16.88;69.23;100801.03;5072436;28;20178;-74
2022/09/02 08:16:45;;;;;;;0.00;0.00;;;;;;;17.04;69.40;100809.44;5072472;28;20205;-76
2022/09/02 08:19:12;;;;;;;0.20;0.20;;;;;;;17.11;68.78;100810.47;5072523;28;20209;-77
2022/09/02 08:21:37;;;;;;;0.00;0.00;;;;;;;17.16;69.57;100809.44;5072312;28;20262;-76
2022/09/02 08:24:03;;;;;;;0.10;0.10;;;;;;;17.27;67.47;100810.56;5071989;28;20261;-76
2022/09/02 08:26:29;;;;;;;0.10;0.10;;;;;;;17.11;67.06;100806.91;5072333;28;20286;-74
2022/09/02 08:28:54;;;;;;;0.10;0.10;;;;;;;17.36;67.21;100805.72;5068007;28;20724;-77
2022/09/02 08:31:20;;;;;;;0.00;0.00;;;;;;;17.54;66.45;100807.06;5066192;28;20178;-77
2022/09/02 08:33:45;;;;;;;0.23;0.23;;;;;;;17.81;66.70;100813.00;5072575;28;20341;-77
2022/09/02 08:36:13;;;;;;;0.00;0.00;;;;;;;18.00;65.90;100801.28;5071678;28;20641;-77
2022/09/02 08:38:42;;;;;;;0.00;0.00;;;;;;;17.96;64.50;100811.44;5072412;28;20504;-77
2022/09/02 08:41:16;;;;;;;0.00;0.00;;;;;;;18.11;65.04;100796.88;5072775;28;20179;-77
2022/09/02 08:43:43;;;;;;;0.10;0.10;;;;;;;18.07;63.97;100799.50;5072035;28;20645;-77
2022/09/02 08:46:13;;;;;;;0.00;0.00;;;;;;;17.94;63.77;100792.47;5072068;28;20214;-76
2022/09/02 08:48:48;;;;;;;0.00;0.00;;;;;;;18.16;64.08;100798.56;5071974;28;20179;-76
2022/09/02 08:51:25;;;;;;;0.20;0.20;;;;;;;18.23;63.07;100791.28;5071696;28;20220;-73
2022/09/02 08:54:00;;;;;;;0.10;0.10;;;;;;;18.36;63.25;100791.97;5072759;28;20186;-73
2022/09/02 08:56:26;;;;;;;0.30;0.30;;;;;;;18.28;61.96;100790.19;5072193;28;20204;-73
2022/09/02 08:58:52;;;;;;;0.00;0.00;;;;;;;18.46;61.51;100787.88;5072234;28;20244;-73
2022/09/02 09:01:29;;;;;;;0.00;0.00;;;;;;;18.71;61.17;100784.63;5070034;28;20186;-72
2022/09/02 09:04:07;;;;;;;0.10;0.10;;;;;;;18.91;60.58;100784.69;5071728;28;20228;-73
2022/09/02 09:06:55;;;;;;;0.03;0.03;;;;;;;18.88;59.38;100788.97;5065450;28;20174;-73
2022/09/02 09:09:43;;;;;;;0.27;0.07;;;;;;;18.98;59.15;100769.06;5061265;28;20178;-74
2022/09/02 09:12:31;;;;;;;0.00;0.00;;;;;;;19.06;59.12;100766.44;5071834;28;20174;-73
2022/09/02 09:15:07;;;;;;;0.37;0.30;;;;;;;19.17;58.24;100770.25;5071726;28;20177;-73
2022/09/02 09:17:59;;;;;;;0.20;0.20;;;;;;;19.13;58.47;100763.84;5071697;28;20285;-72
2022/09/02 09:20:27;;;;;;;1.33;0.40;;;;;;;19.18;57.66;100761.59;5071567;28;20210;-73
2022/09/02 09:22:59;;;;;;;0.07;0.07;;;;;;;19.24;57.59;100762.91;5071500;28;20629;-73
2022/09/02 09:25:29;;;;;;;0.10;0.10;;;;;;;19.35;57.30;100765.91;5071371;28;20186;-73
2022/09/02 09:27:59;;;;;;;0.90;0.73;;;;;;;19.55;56.59;100761.22;5071404;28;20174;-73
2022/09/02 09:30:25;;;;;;;0.53;0.53;;;;;;;19.51;56.88;100749.22;5070919;28;20201;-73
2022/09/02 09:32:56;;;;;;;0.10;0.10;;;;;;;19.73;56.17;100744.94;5071031;28;20186;-73
2022/09/02 09:35:23;;;;;;;0.00;0.00;;;;;;;19.80;56.25;100748.66;5070873;28;20205;-73
2022/09/02 09:37:50;;;;;;;0.20;0.20;;;;;;;19.81;54.52;100750.25;5071029;28;20348;-72
2022/09/02 09:40:20;;;;;;;0.00;0.00;;;;;;;19.89;54.71;100735.38;5070848;28;20210;-73
2022/09/02 09:42:54;;;;;;;0.00;0.00;;;;;;;20.00;55.13;100743.91;5071248;28;20555;-73
2022/09/02 09:45:47;;;;;;;0.00;0.00;;;;;;;20.06;53.53;100736.88;5070646;28;20270;-73
2022/09/02 09:48:21;;;;;;;0.00;0.00;;;;;;;20.11;53.10;100728.25;5070727;28;20179;-73
2022/09/02 09:50:56;;;;;;;0.00;0.00;;;;;;;20.26;52.55;100734.84;5070823;28;20175;-73
2022/09/02 09:53:22;;;;;;;0.00;0.00;;;;;;;20.04;52.41;100719.78;5070214;28;20239;-73
2022/09/02 09:56:04;;;;;;;6.70;0.83;;;;;;;20.29;52.52;100722.22;5070475;28;20218;-72
2022/09/02 09:58:35;;;;;;;0.17;0.17;;;;;;;20.18;51.65;100722.81;5070423;28;20254;-73
2022/09/02 10:01:25;;;;;;;1.60;0.40;;;;;;;20.22;51.30;100720.09;5070758;28;20442;-73
2022/09/02 10:04:06;;;;;;;0.03;0.03;;;;;;;20.19;50.58;100718.88;5070425;28;20178;-72
2022/09/02 10:06:31;;;;;;;0.00;0.00;;;;;;;20.49;51.55;100709.88;5067025;28;20185;-73
2022/09/02 10:09:03;;;;;;;0.10;0.10;;;;;;;20.28;51.27;100715.84;5070399;28;20174;-72
2022/09/02 10:11:55;;;;;;;0.00;0.00;;;;;;;20.34;50.04;100721.88;5070941;28;20195;-73
2022/09/02 10:14:22;;;;;;;0.20;0.20;;;;;;;20.58;49.34;100721.53;5070490;28;20178;-73
2022/09/02 10:17:29;;;;;;;0.10;0.10;;;;;;;20.58;48.69;100720.75;5067970;28;20186;-74
2022/09/02 10:20:15;;;;;;;0.00;0.00;;;;;;;20.75;48.74;100712.69;5069811;28;20234;-73
2022/09/02 10:23:10;;;;;;;0.00;0.00;;;;;;;20.89;49.23;100706.53;5065079;28;20170;-73
2022/09/02 10:25:57;;;;;;;0.00;0.00;;;;;;;21.10;48.58;100706.81;5052689;28;20172;-72
2022/09/02 10:28:41;;;;;;;0.00;0.00;;;;;;;21.12;49.19;100700.09;5070515;28;20182;-73
2022/09/02 10:31:16;;;;;;;0.00;0.00;;;;;;;21.19;48.33;100694.63;5070918;28;20252;-72
2022/09/02 10:34:02;;;;;;;0.00;0.00;;;;;;;21.31;47.98;100700.00;5070519;28;20259;-73
2022/09/02 10:36:45;;;;;;;0.10;0.10;;;;;;;21.05;47.19;100695.25;5070630;28;20167;-72
2022/09/02 10:39:24;;;;;;;0.00;0.00;;;;;;;21.03;46.98;100687.28;5070469;28;20207;-72
2022/09/02 10:41:54;;;;;;;0.10;0.10;;;;;;;21.41;48.14;100692.94;5068922;28;20167;-73
2022/09/02 10:44:24;;;;;;;0.10;0.10;;;;;;;21.35;46.65;100695.25;5069858;28;20265;-73
2022/09/02 10:46:53;;;;;;;0.00;0.00;;;;;;;21.17;47.36;100675.56;5070332;28;20210;-74
2022/09/02 10:49:48;;;;;;;0.13;0.13;;;;;;;21.23;46.17;100670.47;5070333;28;20182;-72
2022/09/02 10:52:25;;;;;;;0.10;0.10;;;;;;;21.35;45.58;100684.16;5054076;28;20232;-73
2022/09/02 10:55:08;;;;;;;0.00;0.00;;;;;;;21.59;45.65;100686.44;5070239;28;20182;-73
2022/09/02 10:58:02;;;;;;;0.00;0.00;;;;;;;21.49;44.71;100680.72;5070340;28;20187;-73
2022/09/02 11:00:31;;;;;;;0.40;0.40;;;;;;;21.49;45.16;100678.75;5071204;28;20227;-73
2022/09/02 11:02:59;;;;;;;0.00;0.00;;;;;;;;;;5074472;28;20203;-74
2022/09/02 11:05:32;;;;;;;0.10;0.10;;;;;;;21.41;43.59;100679.88;5074214;28;20170;-73
2022/09/02 11:08:35;;;;;;;0.10;0.10;;;;;;;21.68;44.16;100669.41;5074296;28;20174;-74
2022/09/02 11:11:05;;;;;;;0.20;0.20;;;;;;;21.65;43.87;100659.88;5071219;28;20189;-73
2022/09/02 11:13:50;;;;;;;0.00;0.00;;;;;;;21.91;44.27;100653.38;5074024;28;20388;-73
2022/09/02 11:16:25;;;;;;;0.00;0.00;;;;;;;21.93;43.62;100662.13;5073968;28;20719;-74
2022/09/02 11:19:14;;;;;;;0.13;0.13;;;;;;;21.76;43.50;100650.84;5074261;28;20289;-73
2022/09/02 11:21:58;;;;;;;0.40;0.20;;;;;;;21.72;44.00;100642.47;5070753;28;20289;-73
2022/09/02 11:24:41;;;;;;;0.30;0.30;;;;;;;21.77;44.50;100628.19;5071801;28;20237;-73
2022/09/02 11:27:40;;;;;;;0.00;0.00;;;;;;;21.74;44.05;100642.88;5073155;28;20187;-73
2022/09/02 11:30:26;;;;;;;0.00;0.00;;;;;;;21.96;44.04;100638.28;5069445;28;20366;-74
2022/09/02 11:33:27;;;;;;;0.00;0.00;;;;;;;22.27;44.15;100634.22;5072794;28;20207;-73
2022/09/02 11:35:52;;;;;;;0.00;0.00;;;;;;;22.54;42.97;100630.03;5059180;28;20210;-73
2022/09/02 11:38:49;;;;;;;0.17;0.17;;;;;;;22.45;42.43;100635.16;5073451;28;20553;-73